»·PEaware :: QXE2288 KPDX-KSEA

QXE2288 :: KPDX-KSEA

FLIGHT INFORMATION

Flight Status: Arrived
Operator:
Horizon Air
More flights by this operator :: More flights under this callsign
Pilot: Roland W. (25691)
Aircraft: DEHAVILLAND DASH 8 400
(DH8D)
More flights by this aircraft type
Origin: KPDX Portland Intl
United States
Destination: KSEA Seattle-Tacoma Intl
United States
More flights between these airports :: More routes between these airports
Route: COUGA KRIEG HAWKZ7
File this flight plan on PilotEdge
Remarks: PBN / B2B3B4D2D3O2O3S1 NAV / RNVD1E2A1 DAT / V REG / N407QX OPR / QX
Altitude:
(Current/Filed)
14,000ft
Speed:
(Current/Filed)
317kts
Departed: 01-Aug-19 12:01 PM
Arrived: 01-Aug-19 12:37 PM
Distance/Time
Traveled:
112nm/0:36
Distance/Time
To Go:
Arrived

Flight Plot

Page will automatically refresh every two minutes.

Flight plan parsing failed; only flown route is shown


Map Options




Map Legend


Flown Route
Filed Route
Departure Airport
Arrival Airport
Navaid (VOR, NDB)
Fix

Horizontal Profiles

Position Reports

Time Latitude Longitude Heading Altitude Ground
Speed
01-Aug-19 11:13 45.585911 -122.591941 14 37ft 0kts
01-Aug-19 11:14 45.585911 -122.591941 14 37ft 0kts
01-Aug-19 11:15 45.585911 -122.591941 14 37ft 0kts
01-Aug-19 11:16 45.585911 -122.591941 14 37ft 0kts
01-Aug-19 11:17 45.585911 -122.591941 14 37ft 0kts
01-Aug-19 11:18 45.585911 -122.591941 14 37ft 0kts
01-Aug-19 11:19 45.585911 -122.591941 14 37ft 0kts
01-Aug-19 11:20 45.585911 -122.591941 14 37ft 0kts
01-Aug-19 11:21 45.585911 -122.591941 14 37ft 0kts
01-Aug-19 11:22 45.585911 -122.591941 14 37ft 0kts
01-Aug-19 11:23 45.585911 -122.591941 14 37ft 0kts
01-Aug-19 11:24 45.585911 -122.591941 14 37ft 0kts
01-Aug-19 11:25 45.585911 -122.591941 14 37ft 0kts
01-Aug-19 11:26 45.585911 -122.591941 14 37ft 0kts
01-Aug-19 11:27 45.585911 -122.591941 14 37ft 0kts
01-Aug-19 11:28 45.585911 -122.591941 14 37ft 0kts
01-Aug-19 11:29 45.585912 -122.591941 14 37ft 0kts
01-Aug-19 11:30 45.585912 -122.591941 14 37ft 0kts
01-Aug-19 11:31 45.585912 -122.591941 14 37ft 0kts
01-Aug-19 11:32 45.585912 -122.591941 14 37ft 0kts
01-Aug-19 11:33 45.585912 -122.591941 14 37ft 0kts
01-Aug-19 11:34 45.585912 -122.591941 14 37ft 0kts
01-Aug-19 11:35 45.585912 -122.591941 14 37ft 0kts
01-Aug-19 11:36 45.585912 -122.591941 14 37ft 0kts
01-Aug-19 11:37 45.585912 -122.591941 14 37ft 0kts
01-Aug-19 11:38 45.585912 -122.591941 14 37ft 0kts
01-Aug-19 11:39 45.585912 -122.591941 14 37ft 0kts
01-Aug-19 11:40 45.585912 -122.591941 14 37ft 0kts
01-Aug-19 11:41 45.585912 -122.591941 14 37ft 0kts
01-Aug-19 11:42 45.585912 -122.591941 14 37ft 0kts
01-Aug-19 11:43 45.585912 -122.591941 14 37ft 0kts
01-Aug-19 11:44 45.585912 -122.591941 14 37ft 0kts
01-Aug-19 11:45 45.585912 -122.591941 14 37ft 0kts
01-Aug-19 11:46 45.585912 -122.591941 14 37ft 0kts
01-Aug-19 11:47 45.585643 -122.592106 26 37ft 2kts
01-Aug-19 11:48 45.585217 -122.591908 305 37ft 2kts
01-Aug-19 11:49 45.585117 -122.591734 310 37ft 0kts
01-Aug-19 11:50 45.585117 -122.591734 310 37ft 0kts
01-Aug-19 11:51 45.585117 -122.591734 310 37ft 0kts
01-Aug-19 11:52 45.585174 -122.591807 321 37ft 1kts
01-Aug-19 11:53 45.586342 -122.593822 308 37ft 12kts
01-Aug-19 11:54 45.587669 -122.596872 297 37ft 5kts
01-Aug-19 11:55 45.589603 -122.603882 295 37ft 18kts
01-Aug-19 11:56 45.592401 -122.609684 299 37ft 10kts
01-Aug-19 11:57 45.593290 -122.611845 298 37ft 12kts
01-Aug-19 11:58 45.595751 -122.618126 297 37ft 17kts
01-Aug-19 11:59 45.595774 -122.620798 208 37ft 11kts
01-Aug-19 12:00 45.590708 -122.609979 119 38ft 126kts
01-Aug-19 12:01 45.571268 -122.560570 116 2370ft 137kts
01-Aug-19 12:02 45.561750 -122.507443 48 4537ft 160kts
01-Aug-19 12:03 45.606664 -122.509062 342 6522ft 193kts
01-Aug-19 12:04 45.666550 -122.529933 343 8144ft 241kts
01-Aug-19 12:05 45.733586 -122.552534 342 10059ft 256kts
01-Aug-19 12:06 45.809225 -122.578444 342 10510ft 304kts
01-Aug-19 12:07 45.891778 -122.606989 341 11193ft 312kts
01-Aug-19 12:08 45.975541 -122.635925 341 11889ft 316kts
01-Aug-19 12:09 45.975838 -122.636029 341 11891ft 316kts
01-Aug-19 12:12 46.315107 -122.721192 347 13987ft 345kts
01-Aug-19 12:13 46.410432 -122.726111 355 13989ft 355kts
01-Aug-19 12:14 46.507737 -122.728708 354 13988ft 359kts
01-Aug-19 12:15 46.605157 -122.732393 354 13991ft 355kts
01-Aug-19 12:16 46.700996 -122.735904 354 13988ft 355kts
01-Aug-19 12:17 46.792192 -122.726648 22 13978ft 361kts
01-Aug-19 12:18 46.870508 -122.638481 39 13978ft 362kts
01-Aug-19 12:19 46.932767 -122.567866 30 13951ft 340kts
01-Aug-19 12:20 47.011395 -122.529363 12 12827ft 315kts
01-Aug-19 12:21 47.082208 -122.500008 10 11281ft 302kts
01-Aug-19 12:22 47.161961 -122.485305 4 10048ft 301kts
01-Aug-19 12:23 47.240341 -122.472417 4 9402ft 301kts
01-Aug-19 12:24 47.319211 -122.460760 5 8147ft 277kts
01-Aug-19 12:25 47.388750 -122.454345 359 7212ft 241kts
01-Aug-19 12:26 47.448235 -122.455216 358 6138ft 238kts
01-Aug-19 12:27 47.509292 -122.455495 0 5992ft 241kts
01-Aug-19 12:28 47.572717 -122.462350 1 4165ft 223kts
01-Aug-19 12:29 47.630140 -122.459786 19 3992ft 231kts
01-Aug-19 12:30 47.649739 -122.386320 96 3971ft 201kts
01-Aug-19 12:31 47.616385 -122.325754 144 3771ft 193kts
01-Aug-19 12:32 47.571985 -122.301181 180 2462ft 173kts
01-Aug-19 12:33 47.526498 -122.306651 183 1607ft 140kts
01-Aug-19 12:34 47.489751 -122.307693 181 868ft 127kts
01-Aug-19 12:35 47.456456 -122.307862 179 441ft 81kts
01-Aug-19 12:36 47.449576 -122.306313 172 440ft 7kts
01-Aug-19 12:37 47.448416 -122.306293 180 440ft 9kts
01-Aug-19 12:38 47.445939 -122.306235 165 440ft 0kts
01-Aug-19 12:39 47.445695 -122.304765 89 440ft 0kts
01-Aug-19 12:40 47.445695 -122.304765 89 440ft 0kts
01-Aug-19 12:41 47.445695 -122.304765 89 440ft 0kts
01-Aug-19 12:42 47.445695 -122.304765 89 440ft 0kts
01-Aug-19 12:43 47.445695 -122.304765 89 440ft 0kts
01-Aug-19 12:44 47.445695 -122.304765 89 440ft 0kts
01-Aug-19 12:45 47.445695 -122.304765 89 440ft 0kts
01-Aug-19 12:46 47.445695 -122.304765 89 440ft 0kts
01-Aug-19 12:47 47.445695 -122.304765 89 440ft 0kts
01-Aug-19 12:48 47.445695 -122.304765 89 440ft 0kts
01-Aug-19 12:49 47.445695 -122.304765 89 440ft 0kts
01-Aug-19 12:50 47.445695 -122.304765 89 440ft 0kts

Navigation Log

Ident Type
Flight plan parsing failed, navigation log unavailable